createdAt,value
2022-10-23T00:00:02.023Z,999.74
2022-10-23T00:05:02.402Z,999.67
2022-10-23T00:10:01.297Z,999.58
2022-10-23T00:15:01.631Z,999.54
2022-10-23T00:20:01.484Z,999.56
2022-10-23T00:25:02.253Z,999.56
2022-10-23T00:30:01.578Z,999.62
2022-10-23T00:35:01.565Z,999.62
2022-10-23T00:40:02.187Z,999.58
2022-10-23T00:45:02.102Z,999.58
2022-10-23T00:50:01.574Z,999.53
2022-10-23T00:55:01.954Z,999.47
2022-10-23T01:00:01.698Z,999.44
2022-10-23T01:05:01.536Z,999.35
2022-10-23T01:10:01.608Z,999.47
2022-10-23T01:15:01.427Z,999.56
2022-10-23T01:20:02.214Z,999.53
2022-10-23T01:25:01.379Z,999.46
2022-10-23T01:30:01.892Z,999.46
2022-10-23T01:40:01.636Z,999.3
2022-10-23T01:45:01.958Z,999.3
2022-10-23T01:50:01.612Z,999.28
2022-10-23T01:55:01.393Z,999.28
2022-10-23T02:00:02.122Z,999.18
2022-10-23T02:05:01.871Z,999.1
2022-10-23T02:10:01.925Z,998.93
2022-10-23T02:15:02.213Z,998.82
2022-10-23T02:20:01.495Z,998.85
2022-10-23T02:25:01.387Z,998.76
2022-10-23T02:30:01.707Z,998.77
2022-10-23T02:35:01.909Z,998.68
2022-10-23T02:40:01.521Z,998.58
2022-10-23T02:45:01.916Z,998.6
2022-10-23T02:50:01.657Z,998.55
2022-10-23T02:55:01.984Z,998.54
2022-10-23T03:00:02.047Z,998.1
2022-10-23T03:05:01.486Z,998.24
2022-10-23T03:10:02.208Z,997.99
2022-10-23T03:15:01.954Z,997.95
2022-10-23T03:20:01.474Z,997.89
2022-10-23T03:25:01.315Z,997.89
2022-10-23T03:30:02.302Z,997.89
2022-10-23T03:35:01.303Z,997.86
2022-10-23T03:40:02.115Z,998
2022-10-23T03:45:01.712Z,998.05
2022-10-23T03:50:01.783Z,998.02
2022-10-23T03:55:01.504Z,997.87
2022-10-23T04:00:02.219Z,997.9
2022-10-23T04:05:01.370Z,998.01
2022-10-23T04:10:01.784Z,997.64
2022-10-23T04:15:02.112Z,997.72
2022-10-23T04:20:02.054Z,997.73
2022-10-23T04:25:02.001Z,997.67
2022-10-23T04:30:01.340Z,997.64
2022-10-23T04:35:01.798Z,997.66
2022-10-23T04:40:01.552Z,997.65
2022-10-23T04:45:02.170Z,997.45
2022-10-23T04:50:01.752Z,997.45
2022-10-23T04:55:02.119Z,997.32
2022-10-23T05:00:01.333Z,997.36
2022-10-23T05:05:02.092Z,997.33
2022-10-23T05:10:01.298Z,997.38
2022-10-23T05:15:01.314Z,997.22
2022-10-23T05:20:01.777Z,997.11
2022-10-23T05:25:01.996Z,997.16
2022-10-23T05:30:01.664Z,997.09
2022-10-23T05:35:01.370Z,997.03
2022-10-23T05:40:01.681Z,997.03
2022-10-23T05:45:01.758Z,996.93
2022-10-23T05:50:01.453Z,996.87
2022-10-23T05:55:02.218Z,996.79
2022-10-23T06:00:01.614Z,996.71
2022-10-23T06:05:01.589Z,996.72
2022-10-23T06:10:01.967Z,996.66
2022-10-23T06:15:01.555Z,996.62
2022-10-23T06:20:01.669Z,996.59
2022-10-23T06:25:02.182Z,996.61
2022-10-23T06:30:01.791Z,996.61
2022-10-23T06:35:01.946Z,996.68
2022-10-23T06:40:01.787Z,996.62
2022-10-23T06:45:04.918Z,996.43
2022-10-23T06:50:01.968Z,996.47
2022-10-23T06:55:02.186Z,996.33
2022-10-23T07:00:01.671Z,996.29
2022-10-23T07:05:02.220Z,996.32
2022-10-23T07:10:01.852Z,996.3
2022-10-23T07:15:01.820Z,996.29
2022-10-23T07:20:01.371Z,996.26
2022-10-23T07:25:01.282Z,996.36
2022-10-23T07:30:01.648Z,996.33
2022-10-23T07:35:01.919Z,996.38
2022-10-23T07:40:01.355Z,996.35
2022-10-23T07:45:01.431Z,996.35
2022-10-23T07:50:01.422Z,996.36
2022-10-23T07:55:02.023Z,996.36
2022-10-23T08:00:02.035Z,996.36
2022-10-23T08:05:01.657Z,996.24
2022-10-23T08:10:01.997Z,996.2
2022-10-23T08:15:01.924Z,996.2
2022-10-23T08:20:01.619Z,996.11
2022-10-23T08:25:01.378Z,996.12
2022-10-23T08:30:01.819Z,996.13
2022-10-23T08:35:01.480Z,996.07
2022-10-23T08:40:02.062Z,996.08
2022-10-23T08:45:01.954Z,995.91
2022-10-23T08:50:01.864Z,995.9
2022-10-23T08:55:02.097Z,995.88
2022-10-23T09:00:01.748Z,995.76
2022-10-23T09:05:01.453Z,995.71
2022-10-23T09:10:02.177Z,995.81
2022-10-23T09:15:01.262Z,995.64
2022-10-23T09:20:01.946Z,995.65
2022-10-23T09:25:01.661Z,995.61
2022-10-23T09:30:02.203Z,995.61
2022-10-23T09:35:01.642Z,995.55
2022-10-23T09:40:01.532Z,995.67
2022-10-23T09:45:01.574Z,995.52
2022-10-23T09:50:01.306Z,995.46
2022-10-23T09:55:02.107Z,995.56
2022-10-23T10:00:01.493Z,995.48
2022-10-23T10:05:01.607Z,995.46
2022-10-23T10:10:01.688Z,995.37
2022-10-23T10:15:01.855Z,995.45
2022-10-23T10:20:05.281Z,995.39
2022-10-23T10:25:02.194Z,995.26
2022-10-23T10:30:01.673Z,994.97
2022-10-23T10:35:01.570Z,994.68
2022-10-23T10:40:01.791Z,994.84
2022-10-23T10:45:01.472Z,994.88
2022-10-23T10:50:02.045Z,994.41
2022-10-23T10:55:01.264Z,994.45
2022-10-23T11:00:01.274Z,994.77
2022-10-23T11:05:01.372Z,994.96
2022-10-23T11:10:01.953Z,994.86
2022-10-23T11:15:01.995Z,994.7
2022-10-23T11:20:02.175Z,994.74
2022-10-23T11:25:01.993Z,994.58
2022-10-23T11:30:01.586Z,994.46
2022-10-23T11:35:01.486Z,994.41
2022-10-23T11:40:01.373Z,994.27
2022-10-23T11:45:01.318Z,994.23
2022-10-23T11:50:01.631Z,994.28
2022-10-23T11:55:01.848Z,994.22
2022-10-23T12:00:02.339Z,993.96
2022-10-23T12:05:01.608Z,994
2022-10-23T12:10:01.595Z,993.95
2022-10-23T12:15:01.811Z,993.82
2022-10-23T12:20:02.654Z,993.68
2022-10-23T12:25:01.397Z,993.68
2022-10-23T12:30:02.074Z,993.58
2022-10-23T12:35:01.299Z,993.53
2022-10-23T12:40:01.433Z,993.39
2022-10-23T12:45:01.867Z,993.24
2022-10-23T12:50:01.515Z,993.07
2022-10-23T12:55:02.115Z,993.09
2022-10-23T13:00:01.534Z,992.97
2022-10-23T13:05:02.028Z,992.96
2022-10-23T13:10:01.697Z,992.96
2022-10-23T13:15:01.283Z,992.87
2022-10-23T13:20:01.908Z,992.9
2022-10-23T13:25:01.346Z,992.84
2022-10-23T13:30:02.575Z,992.73
2022-10-23T13:35:20.910Z,992.75
2022-10-23T13:40:01.551Z,992.55
2022-10-23T13:45:02.008Z,992.58
2022-10-23T13:50:01.758Z,992.49
2022-10-23T13:55:01.258Z,992.4
2022-10-23T14:00:01.702Z,992.43
2022-10-23T14:05:01.266Z,992.43
2022-10-23T14:10:01.885Z,992.47
2022-10-23T14:15:01.273Z,992.28
2022-10-23T14:20:04.038Z,992.17
2022-10-23T14:25:02.166Z,992.03
2022-10-23T14:30:01.496Z,992.13
2022-10-23T14:35:02.210Z,991.95
2022-10-23T14:40:02.118Z,991.97
2022-10-23T14:45:01.383Z,991.99
2022-10-23T14:50:01.885Z,991.92
2022-10-23T14:55:01.503Z,991.85
2022-10-23T15:00:01.338Z,991.87
2022-10-23T15:05:01.387Z,991.98
2022-10-23T15:10:02.192Z,991.79
2022-10-23T15:15:01.515Z,991.74
2022-10-23T15:20:02.115Z,991.65
2022-10-23T15:25:01.374Z,991.62
2022-10-23T15:30:02.165Z,991.58
2022-10-23T15:35:01.578Z,991.41
2022-10-23T15:40:02.700Z,991.55
2022-10-23T15:45:02.059Z,991.4
2022-10-23T15:50:01.647Z,991.57
2022-10-23T15:55:02.289Z,991.63
2022-10-23T16:00:02.078Z,991.64
2022-10-23T16:05:02.054Z,991.66
2022-10-23T16:10:01.627Z,991.64
2022-10-23T16:15:02.178Z,991.75
2022-10-23T16:20:02.212Z,991.71
2022-10-23T16:25:01.790Z,991.82
2022-10-23T16:30:01.585Z,991.91
2022-10-23T16:35:01.736Z,992.08
2022-10-23T16:40:01.870Z,992.29
2022-10-23T16:45:01.413Z,992.59
2022-10-23T16:50:01.487Z,992.91
2022-10-23T16:55:01.406Z,993.69
2022-10-23T17:00:01.469Z,993.51
2022-10-23T17:05:01.544Z,993.53
2022-10-23T17:10:02.199Z,993.56
2022-10-23T17:15:01.586Z,993.49
2022-10-23T17:20:01.579Z,993.29
2022-10-23T17:25:01.688Z,991.95
2022-10-23T17:30:02.166Z,991.81
2022-10-23T17:35:01.737Z,991.98
2022-10-23T17:40:01.657Z,992.08
2022-10-23T17:45:01.787Z,992.18
2022-10-23T17:50:01.568Z,992.32
2022-10-23T17:55:01.230Z,992.27
2022-10-23T18:00:01.584Z,992.14
2022-10-23T18:05:01.294Z,992.14
2022-10-23T18:10:01.304Z,992.16
2022-10-23T18:15:02.043Z,992.08
2022-10-23T18:20:02.156Z,992.13
2022-10-23T18:25:01.589Z,992.14
2022-10-23T18:30:01.575Z,992.11
2022-10-23T18:35:01.566Z,992.12
2022-10-23T18:40:01.894Z,992.22
2022-10-23T18:45:02.025Z,992.17
2022-10-23T18:50:02.229Z,992.06
2022-10-23T18:55:01.474Z,992.07
2022-10-23T19:00:02.019Z,992.19
2022-10-23T19:05:02.196Z,992.19
2022-10-23T19:10:01.725Z,992.15
2022-10-23T19:15:02.175Z,992.08
2022-10-23T19:20:01.552Z,992.04
2022-10-23T19:25:02.338Z,992.09
2022-10-23T19:30:02.131Z,992.06
2022-10-23T19:35:01.240Z,992
2022-10-23T19:40:01.554Z,992.01
2022-10-23T19:45:02.046Z,992.11
2022-10-23T19:50:01.968Z,992.3
2022-10-23T19:55:01.831Z,992.38
2022-10-23T20:00:01.442Z,992.42
2022-10-23T20:05:01.516Z,992.44
2022-10-23T20:10:01.567Z,992.47
2022-10-23T20:15:01.677Z,992.54
2022-10-23T20:20:02.440Z,992.49
2022-10-23T20:25:02.100Z,992.46
2022-10-23T20:30:01.777Z,992.48
2022-10-23T20:35:01.908Z,992.44
2022-10-23T20:40:01.586Z,992.5
2022-10-23T20:45:01.388Z,992.5
2022-10-23T20:50:02.071Z,992.56
2022-10-23T20:55:01.670Z,992.69
2022-10-23T21:00:02.058Z,992.81
2022-10-23T21:05:01.451Z,992.91
2022-10-23T21:10:01.460Z,993.11
2022-10-23T21:15:01.296Z,993.06
2022-10-23T21:20:01.578Z,993.12
2022-10-23T21:25:01.605Z,993.09
2022-10-23T21:30:01.968Z,993.11
2022-10-23T21:35:01.519Z,993.23
2022-10-23T21:40:01.881Z,993.19
2022-10-23T21:45:02.022Z,993.15
2022-10-23T21:50:01.797Z,993.19
2022-10-23T21:55:05.564Z,993.18
2022-10-23T22:00:02.242Z,993.17
2022-10-23T22:05:01.279Z,993.03
2022-10-23T22:10:01.794Z,993.02
2022-10-23T22:15:01.823Z,993.07
2022-10-23T22:20:02.212Z,992.93
2022-10-23T22:25:01.780Z,992.97
2022-10-23T22:30:02.115Z,993
2022-10-23T22:35:01.456Z,993.04
2022-10-23T22:40:01.546Z,993.09
2022-10-23T22:45:01.505Z,993.15
2022-10-23T22:50:02.020Z,993.18
2022-10-23T22:55:01.808Z,993.19
2022-10-23T23:00:02.197Z,993.16
2022-10-23T23:05:02.200Z,993.14
2022-10-23T23:10:02.328Z,993.14
2022-10-23T23:30:03.726Z,993.07
2022-10-23T23:35:02.299Z,993.08
2022-10-23T23:40:01.773Z,993.07
2022-10-23T23:45:13.579Z,992.95
2022-10-23T23:50:02.347Z,992.82
2022-10-23T23:55:03.032Z,992.82
